aviador You're here:

LEMD Decoded Metar

MADRID in SPAIN
Report Time2018-05-22 23:00:00
UTC Time2018-05-22 23:23:06
Flight Rules vfr VFR
Wind010° at 01 kt
W.Decomp.*RWY 36: 1.0 kt HW 0.2 kt RCW
RWY 32: 0.6 kt HW 0.8 kt RCW
W.Rank010° ranks 3
Current wind is below 010° avg. (5.3)
Visibility9999 m
Phenomena:N/A
Clouds:N/A
Expected CloudBase > 800 ft AGL from Temp-Dew spread
CeilingNone
Temp16°C (ISA +5)
Dew Point14°C (88% RH)
QNH1016 hPa
Density Alt2,592 ft
Elevation1,909 ft
Report Wrong Elevation
Raw Report
LEMD 222300Z 01001KT CAVOK 16/14 Q1016 NOSIG=

Extra information for LEMD:More info

Metar Taf Metar & Taf Last 4 Metars F.Rules Stats Wind Profile Meteogram Temp Stats Airport Information Weather charts Add Link Nearby VenuesMetar ALERT Operation Metar Decoded Social comments